Time;durP1;ratioP1;P1;durP2;ratioP2;P2;SDS_P1;SDS_P2;PMS_P1;PMS_P2;Temp;Humidity;BMP_temperature;BMP_pressure;BME280_temperature;BME280_humidity;BME280_pressure;Samples;Min_cycle;Max_cycle;Signal;HPM_P1;HPM_P2
2021/01/01 00:01:05;;;;;;;22.90;16.00;;;;;;;;;;5069395;28;20036;-77
2021/01/01 00:03:50;;;;;;;25.02;17.48;;;;;;;;;;5069087;28;20047;-78
2021/01/01 00:06:38;;;;;;;34.40;23.83;;;;;;;;;;5066733;28;20376;-76
2021/01/01 00:09:24;;;;;;;26.40;17.95;;;;;;;;;;5069128;28;20123;-76
2021/01/01 00:12:10;;;;;;;30.65;19.98;;;;;;;;;;5066536;28;20455;-76
2021/01/01 00:14:58;;;;;;;30.38;19.95;;;;;;;;;;5067745;28;20123;-76
2021/01/01 00:17:43;;;;;;;26.50;18.25;;;;;;;;;;5073553;28;20032;-77
2021/01/01 00:20:28;;;;;;;29.67;18.38;;;;;;;;;;5069179;28;20028;-77
2021/01/01 00:23:13;;;;;;;25.90;18.15;;;;;;;;;;5066395;28;20536;-77
2021/01/01 00:25:59;;;;;;;28.15;19.92;;;;;;;;;;5067571;28;20443;-77
2021/01/01 00:28:45;;;;;;;27.60;19.45;;;;;;;;;;5066720;28;20063;-78
2021/01/01 00:31:31;;;;;;;32.63;22.55;;;;;;;;;;5059961;28;20102;-77
2021/01/01 00:34:16;;;;;;;30.40;18.60;;;;;;;;;;5066121;28;20762;-76
2021/01/01 00:37:01;;;;;;;29.38;20.35;;;;;;;;;;5068746;28;20434;-76
2021/01/01 00:39:47;;;;;;;31.35;22.00;;;;;;;;;;5065405;28;20470;-77
2021/01/01 00:42:35;;;;;;;29.08;19.23;;;;;;;;;;5068783;28;20383;-76
2021/01/01 00:45:21;;;;;;;23.65;16.13;;;;;;;;;;5068596;28;20029;-76
2021/01/01 00:48:06;;;;;;;24.73;16.90;;;;;;;;;;5065451;28;20028;-77
2021/01/01 00:50:51;;;;;;;28.25;19.33;;;;;;;;;;5067085;28;20056;-77
2021/01/01 00:53:36;;;;;;;28.40;19.40;;;;;;;;;;5066033;28;20027;-77
2021/01/01 00:56:23;;;;;;;26.58;17.85;;;;;;;;;;5068208;28;20040;-77
2021/01/01 00:59:08;;;;;;;25.75;16.15;;;;;;;;;;5064139;28;20047;-76
2021/01/01 01:01:56;;;;;;;26.08;15.25;;;;;;;;;;5068121;28;20072;-76
2021/01/01 01:04:41;;;;;;;19.92;13.00;;;;;;;;;;5065852;28;20054;-77
2021/01/01 01:07:27;;;;;;;20.00;12.48;;;;;;;;;;5066568;28;20032;-77
2021/01/01 01:10:12;;;;;;;19.25;13.15;;;;;;;;;;5065300;28;20471;-77
2021/01/01 01:12:57;;;;;;;17.52;11.13;;;;;;;;;;5068219;28;20039;-77
2021/01/01 01:15:43;;;;;;;17.45;11.38;;;;;;;;;;5065898;28;20541;-76
2021/01/01 01:18:28;;;;;;;18.73;12.30;;;;;;;;;;5088048;28;20043;-77
2021/01/01 01:21:13;;;;;;;16.63;11.07;;;;;;;;;;5068235;28;20616;-77
2021/01/01 01:23:58;;;;;;;17.55;11.82;;;;;;;;;;5067959;28;20552;-77
2021/01/01 01:26:44;;;;;;;18.10;10.23;;;;;;;;;;5065551;28;20036;-77
2021/01/01 01:29:29;;;;;;;20.23;13.02;;;;;;;;;;5067821;28;20549;-77
2021/01/01 01:32:14;;;;;;;17.23;11.02;;;;;;;;;;5067617;28;20040;-77
2021/01/01 01:34:59;;;;;;;17.80;11.60;;;;;;;;;;5065247;28;20374;-77
2021/01/01 01:37:44;;;;;;;15.60;9.65;;;;;;;;;;5067684;28;20095;-77
2021/01/01 01:40:30;;;;;;;15.05;10.68;;;;;;;;;;5064875;28;20498;-76
2021/01/01 01:43:15;;;;;;;16.15;11.13;;;;;;;;;;5067580;28;20457;-77
2021/01/01 01:46:01;;;;;;;15.73;10.95;;;;;;;;;;5064895;28;20085;-77
2021/01/01 01:48:46;;;;;;;18.00;10.65;;;;;;;;;;5047547;28;20036;-77
2021/01/01 01:51:33;;;;;;;16.90;10.88;;;;;;;;;;5054088;28;20481;-77
2021/01/01 01:54:19;;;;;;;16.52;10.98;;;;;;;;;;5065743;28;20032;-77
2021/01/01 01:57:06;;;;;;;15.93;11.35;;;;;;;;;;5064638;28;20162;-77
2021/01/01 01:59:53;;;;;;;15.68;10.75;;;;;;;;;;5067027;28;20086;-77
2021/01/01 02:02:39;;;;;;;13.98;9.18;;;;;;;;;;5064663;28;20031;-77
2021/01/01 02:05:24;;;;;;;14.85;9.52;;;;;;;;;;5067157;28;20028;-76
2021/01/01 02:08:09;;;;;;;14.68;8.88;;;;;;;;;;5063451;28;20028;-77
2021/01/01 02:10:55;;;;;;;14.13;9.35;;;;;;;;;;5067264;28;20024;-77
2021/01/01 02:13:41;;;;;;;12.95;9.10;;;;;;;;;;5065610;28;20063;-77
2021/01/01 02:16:27;;;;;;;13.43;8.95;;;;;;;;;;5069077;28;20035;-77
2021/01/01 02:19:12;;;;;;;14.88;9.80;;;;;;;;;;5067119;28;20028;-77
2021/01/01 02:21:59;;;;;;;15.02;10.55;;;;;;;;;;5064644;28;20063;-76
2021/01/01 02:24:44;;;;;;;14.45;10.32;;;;;;;;;;5067365;28;20029;-77
2021/01/01 02:27:29;;;;;;;13.20;9.20;;;;;;;;;;5063086;28;20114;-77
2021/01/01 02:30:15;;;;;;;18.10;11.10;;;;;;;;;;5067086;28;20034;-78
2021/01/01 02:33:00;;;;;;;14.25;10.27;;;;;;;;;;5064868;28;20052;-77
2021/01/01 02:35:45;;;;;;;14.50;9.85;;;;;;;;;;5067046;28;20029;-77
2021/01/01 02:38:31;;;;;;;15.32;9.27;;;;;;;;;;5064547;28;20025;-77
2021/01/01 02:41:16;;;;;;;16.60;11.68;;;;;;;;;;5066811;28;20021;-77
2021/01/01 02:44:01;;;;;;;14.20;9.95;;;;;;;;;;5062808;28;20025;-77
2021/01/01 02:46:47;;;;;;;14.32;9.75;;;;;;;;;;5066228;28;20547;-77
2021/01/01 02:49:32;;;;;;;13.70;9.60;;;;;;;;;;5064483;28;20029;-78
2021/01/01 02:52:18;;;;;;;17.00;11.23;;;;;;;;;;5066671;28;20056;-78
2021/01/01 02:55:03;;;;;;;14.63;10.30;;;;;;;;;;5062246;28;20032;-78
2021/01/01 02:57:48;;;;;;;14.35;9.88;;;;;;;;;;5066704;28;20437;-78
2021/01/01 03:00:35;;;;;;;17.38;11.18;;;;;;;;;;5066612;28;20094;-78
2021/01/01 03:03:20;;;;;;;18.15;11.80;;;;;;;;;;5063576;28;20074;-78
2021/01/01 03:06:05;;;;;;;15.13;10.00;;;;;;;;;;5070601;28;20479;-77
2021/01/01 03:08:50;;;;;;;17.38;11.73;;;;;;;;;;5067914;28;20032;-78
2021/01/01 03:11:35;;;;;;;17.55;10.80;;;;;;;;;;5070548;28;20029;-77
2021/01/01 03:14:21;;;;;;;16.08;9.80;;;;;;;;;;5067713;28;20530;-77
2021/01/01 03:17:06;;;;;;;15.82;11.20;;;;;;;;;;5080504;28;20024;-77
2021/01/01 03:19:51;;;;;;;15.68;11.48;;;;;;;;;;5077085;28;20106;-77
2021/01/01 03:22:36;;;;;;;18.88;10.93;;;;;;;;;;5069920;28;20107;-77
2021/01/01 03:25:22;;;;;;;16.77;11.45;;;;;;;;;;5067888;28;20028;-77
2021/01/01 03:28:07;;;;;;;15.68;11.10;;;;;;;;;;5069973;28;20029;-77
2021/01/01 03:30:52;;;;;;;16.88;10.13;;;;;;;;;;5067951;28;20033;-77
2021/01/01 03:33:37;;;;;;;19.98;13.43;;;;;;;;;;5069777;28;20043;-77
2021/01/01 03:36:22;;;;;;;17.20;11.90;;;;;;;;;;5067540;28;20514;-77
2021/01/01 03:39:08;;;;;;;21.33;13.52;;;;;;;;;;5069624;28;20107;-77
2021/01/01 03:41:53;;;;;;;17.30;11.52;;;;;;;;;;5067796;28;20352;-77
2021/01/01 03:44:38;;;;;;;15.93;10.52;;;;;;;;;;5069445;28;20434;-77
2021/01/01 03:47:24;;;;;;;17.98;11.80;;;;;;;;;;5068436;28;20028;-77
2021/01/01 03:50:09;;;;;;;16.38;10.52;;;;;;;;;;5086042;28;20093;-77
2021/01/01 03:52:54;;;;;;;19.55;13.30;;;;;;;;;;5069775;28;20490;-78
2021/01/01 03:55:40;;;;;;;19.75;13.27;;;;;;;;;;5067252;28;20419;-77
2021/01/01 03:58:26;;;;;;;25.02;15.93;;;;;;;;;;5069293;28;20040;-77
2021/01/01 04:01:14;;;;;;;20.73;13.55;;;;;;;;;;5067475;28;20024;-77
2021/01/01 04:03:59;;;;;;;23.17;15.05;;;;;;;;;;5069962;28;20494;-77
2021/01/01 04:06:44;;;;;;;21.35;14.68;;;;;;;;;;5067020;28;20387;-76
2021/01/01 04:09:30;;;;;;;23.20;15.65;;;;;;;;;;5069398;28;20028;-77
2021/01/01 04:12:15;;;;;;;22.92;13.18;;;;;;;;;;5066889;28;20107;-77
2021/01/01 04:15:00;;;;;;;18.55;12.50;;;;;;;;;;5068398;28;20085;-77
2021/01/01 04:17:45;;;;;;;18.67;12.90;;;;;;;;;;5067036;28;20056;-77
2021/01/01 04:20:31;;;;;;;20.75;13.90;;;;;;;;;;5069179;28;20436;-77
2021/01/01 04:23:16;;;;;;;21.40;14.77;;;;;;;;;;5066694;28;20111;-77
2021/01/01 04:26:03;;;;;;;24.45;15.05;;;;;;;;;;5069354;28;20024;-77
2021/01/01 04:28:48;;;;;;;20.25;12.98;;;;;;;;;;5067500;28;20071;-77
2021/01/01 04:31:34;;;;;;;22.50;15.13;;;;;;;;;;5068930;28;20025;-77
2021/01/01 04:34:19;;;;;;;21.38;14.57;;;;;;;;;;5062754;28;20632;-78
2021/01/01 04:37:04;;;;;;;20.30;12.93;;;;;;;;;;5063206;28;20052;-77
2021/01/01 04:39:49;;;;;;;23.50;15.05;;;;;;;;;;5068716;28;20026;-77
2021/01/01 04:42:36;;;;;;;22.92;15.63;;;;;;;;;;5066426;28;20437;-77
2021/01/01 04:45:21;;;;;;;24.55;14.20;;;;;;;;;;5068706;28;20020;-77
2021/01/01 04:48:06;;;;;;;20.23;12.57;;;;;;;;;;5065669;28;20052;-77
2021/01/01 04:50:52;;;;;;;20.27;12.82;;;;;;;;;;5068636;28;20064;-77
2021/01/01 04:53:38;;;;;;;16.63;10.63;;;;;;;;;;5066021;28;20443;-77
2021/01/01 04:56:24;;;;;;;19.10;12.55;;;;;;;;;;5068106;28;20051;-77
2021/01/01 04:59:09;;;;;;;17.95;12.77;;;;;;;;;;5065811;28;20039;-77
2021/01/01 05:01:54;;;;;;;19.55;13.10;;;;;;;;;;5068444;28;20025;-77
2021/01/01 05:04:39;;;;;;;21.17;13.93;;;;;;;;;;5065843;28;20436;-77
2021/01/01 05:07:26;;;;;;;18.92;12.38;;;;;;;;;;5068219;28;20027;-77
2021/01/01 05:10:12;;;;;;;19.88;13.30;;;;;;;;;;5065883;28;20028;-77
2021/01/01 05:12:57;;;;;;;22.92;15.05;;;;;;;;;;5067936;28;20492;-77
2021/01/01 05:15:43;;;;;;;22.10;14.75;;;;;;;;;;5067403;28;20120;-77
2021/01/01 05:18:28;;;;;;;21.55;13.85;;;;;;;;;;5085430;28;20428;-77
2021/01/01 05:21:20;;;;;;;19.83;14.20;;;;;;;;;;5047995;28;20028;-78
2021/01/01 05:24:06;;;;;;;22.38;14.13;;;;;;;;;;5049681;28;20371;-77
2021/01/01 05:26:52;;;;;;;22.00;15.40;;;;;;;;;;5067881;28;20028;-76
2021/01/01 05:29:51;;;;;;;23.10;15.23;;;;;;;;;;5065270;28;20518;-77
2021/01/01 05:32:36;;;;;;;25.52;16.52;;;;;;;;;;5067658;28;20035;-77
2021/01/01 05:35:25;;;;;;;20.60;14.20;;;;;;;;;;5065153;28;20340;-76
2021/01/01 05:38:15;;;;;;;25.60;16.48;;;;;;;;;;5067866;28;20063;-77
2021/01/01 05:41:00;;;;;;;;;;;;;;;;;;5065917;28;20430;-77
2021/01/01 05:43:45;;;;;;;21.73;13.77;;;;;;;;;;5067626;28;20353;-77
2021/01/01 05:46:31;;;;;;;23.73;15.38;;;;;;;;;;5064324;28;20391;-77
2021/01/01 05:49:17;;;;;;;20.67;14.55;;;;;;;;;;5067584;28;20028;-76
2021/01/01 05:52:10;;;;;;;25.58;16.67;;;;;;;;;;5066233;28;20459;-76
2021/01/01 05:54:59;;;;;;;23.00;15.25;;;;;;;;;;5064695;28;20037;-76
2021/01/01 05:57:44;;;;;;;24.85;16.25;;;;;;;;;;5067603;28;20032;-76
2021/01/01 06:00:30;;;;;;;20.90;13.43;;;;;;;;;;5065003;28;20097;-77
2021/01/01 06:03:19;;;;;;;20.90;14.43;;;;;;;;;;5067400;28;20020;-77
2021/01/01 06:06:04;;;;;;;20.05;12.70;;;;;;;;;;5064753;28;20033;-77
2021/01/01 06:08:51;;;;;;;17.73;11.90;;;;;;;;;;5067250;28;20025;-76
2021/01/01 06:11:37;;;;;;;13.63;9.20;;;;;;;;;;5064756;28;20074;-76
2021/01/01 06:14:26;;;;;;;14.73;8.82;;;;;;;;;;5067256;28;20445;-77
2021/01/01 06:17:12;;;;;;;12.02;7.53;;;;;;;;;;5075631;28;20757;-78
2021/01/01 06:19:57;;;;;;;12.93;7.93;;;;;;;;;;5087013;28;20070;-78
2021/01/01 06:22:57;;;;;;;9.40;6.53;;;;;;;;;;5069005;28;20031;-79
2021/01/01 06:25:42;;;;;;;;;;;;;;;;;;5067678;28;20060;-76
2021/01/01 06:28:27;;;;;;;10.00;6.78;;;;;;;;;;5065680;28;20020;-75
2021/01/01 06:31:13;;;;;;;10.15;6.30;;;;;;;;;;5065975;28;20488;-77
2021/01/01 06:33:58;;;;;;;12.38;8.48;;;;;;;;;;5066938;28;20509;-76
2021/01/01 06:36:43;;;;;;;10.98;7.70;;;;;;;;;;5064519;28;20093;-77
2021/01/01 06:39:55;;;;;;;10.48;6.82;;;;;;;;;;5069875;28;20067;-77
2021/01/01 06:43:00;;;;;;;14.68;8.32;;;;;;;;;;5067086;28;20035;-77
2021/01/01 06:45:46;;;;;;;13.68;7.47;;;;;;;;;;5070615;28;20036;-76
2021/01/01 06:48:31;;;;;;;11.02;6.75;;;;;;;;;;5067778;28;20123;-78
2021/01/01 06:51:16;;;;;;;13.70;9.13;;;;;;;;;;5070566;28;20024;-77
2021/01/01 06:54:13;;;;;;;11.13;7.53;;;;;;;;;;5068366;28;20032;-76
2021/01/01 06:57:03;;;;;;;11.50;7.05;;;;;;;;;;5068782;28;20043;-77
2021/01/01 06:59:48;;;;;;;13.13;8.40;;;;;;;;;;5070563;28;20029;-76
2021/01/01 07:02:34;;;;;;;11.70;7.68;;;;;;;;;;5068003;28;20074;-76
2021/01/01 07:05:33;;;;;;;13.52;7.60;;;;;;;;;;5070507;28;20017;-76
2021/01/01 07:08:37;;;;;;;12.70;7.68;;;;;;;;;;5067804;28;20024;-76
2021/01/01 07:11:22;;;;;;;11.98;8.15;;;;;;;;;;5070557;28;20024;-76
2021/01/01 07:14:09;;;;;;;12.82;8.13;;;;;;;;;;5067984;28;20338;-76
2021/01/01 07:16:54;;;;;;;10.52;6.95;;;;;;;;;;5079111;28;20020;-77
2021/01/01 07:19:40;;;;;;;10.90;7.53;;;;;;;;;;5073844;28;20035;-77
2021/01/01 07:22:25;;;;;;;13.15;7.70;;;;;;;;;;5070296;28;20032;-76
2021/01/01 07:25:10;;;;;;;10.45;6.82;;;;;;;;;;5066029;28;20135;-77
2021/01/01 07:27:56;;;;;;;11.32;6.22;;;;;;;;;;5069907;28;20463;-77
2021/01/01 07:30:41;;;;;;;13.52;6.97;;;;;;;;;;5066160;28;20036;-77
2021/01/01 07:33:27;;;;;;;11.82;6.68;;;;;;;;;;5069946;28;20027;-77
2021/01/01 07:36:13;;;;;;;12.25;7.97;;;;;;;;;;5070155;28;20028;-77
2021/01/01 07:39:01;;;;;;;12.52;7.53;;;;;;;;;;5067412;28;20039;-77
2021/01/01 07:41:46;;;;;;;13.18;8.25;;;;;;;;;;5070164;28;20116;-77
2021/01/01 07:44:32;;;;;;;12.80;7.32;;;;;;;;;;5065576;28;20104;-78
2021/01/01 07:47:18;;;;;;;11.93;7.28;;;;;;;;;;5068931;28;20419;-78
2021/01/01 07:50:10;;;;;;;13.27;7.70;;;;;;;;;;5065577;28;20029;-77
2021/01/01 07:53:01;;;;;;;11.18;5.93;;;;;;;;;;5069492;28;20522;-77
2021/01/01 07:55:47;;;;;;;13.23;8.10;;;;;;;;;;5066921;28;20071;-77
2021/01/01 07:58:33;;;;;;;12.02;7.32;;;;;;;;;;5067798;28;20032;-77
2021/01/01 08:01:18;;;;;;;11.52;6.30;;;;;;;;;;5066994;28;20119;-77
2021/01/01 08:04:03;;;;;;;10.38;6.50;;;;;;;;;;5069524;28;20025;-77
2021/01/01 08:06:53;;;;;;;10.57;6.10;;;;;;;;;;5067445;28;20020;-77
2021/01/01 08:09:44;;;;;;;8.00;5.15;;;;;;;;;;5069363;28;20117;-77
2021/01/01 08:12:29;;;;;;;10.27;6.40;;;;;;;;;;5067127;28;20036;-77
2021/01/01 08:15:26;;;;;;;12.93;6.65;;;;;;;;;;5067936;28;20105;-77
2021/01/01 08:18:12;;;;;;;9.90;5.65;;;;;;;;;;5088714;28;20068;-77
2021/01/01 08:20:58;;;;;;;11.82;7.22;;;;;;;;;;5082618;28;20078;-77
2021/01/01 08:24:02;;;;;;;9.38;5.90;;;;;;;;;;5069181;28;20035;-77
2021/01/01 08:26:48;;;;;;;11.98;7.22;;;;;;;;;;5066686;28;20013;-77
2021/01/01 08:29:34;;;;;;;10.30;6.38;;;;;;;;;;5068797;28;20116;-77
2021/01/01 08:32:20;;;;;;;10.82;6.10;;;;;;;;;;5066499;28;20031;-77
2021/01/01 08:35:08;;;;;;;8.73;5.53;;;;;;;;;;5068893;28;20028;-77
2021/01/01 08:37:54;;;;;;;9.23;5.93;;;;;;;;;;5064622;28;20028;-77
2021/01/01 08:40:42;;;;;;;10.35;5.85;;;;;;;;;;5068895;28;20028;-77
2021/01/01 08:43:28;;;;;;;10.07;5.35;;;;;;;;;;5066381;28;20021;-77
2021/01/01 08:46:14;;;;;;;9.80;5.85;;;;;;;;;;5068822;28;20452;-77
2021/01/01 08:49:12;;;;;;;9.30;5.97;;;;;;;;;;5048822;28;20064;-77
2021/01/01 08:52:07;;;;;;;9.23;5.63;;;;;;;;;;5048990;28;20068;-76
2021/01/01 08:54:53;;;;;;;8.80;5.68;;;;;;;;;;5068739;28;20040;-77
2021/01/01 08:57:38;;;;;;;7.85;4.82;;;;;;;;;;5064381;28;20039;-77
2021/01/01 09:00:23;;;;;;;7.25;4.25;;;;;;;;;;5067835;28;20182;-77
2021/01/01 09:03:09;;;;;;;9.35;5.38;;;;;;;;;;5065688;28;20028;-77
2021/01/01 09:05:54;;;;;;;7.68;4.80;;;;;;;;;;5068461;28;20028;-77
2021/01/01 09:08:40;;;;;;;7.82;4.60;;;;;;;;;;5064020;28;20035;-77
2021/01/01 09:11:28;;;;;;;7.75;4.50;;;;;;;;;;5067876;28;20419;-77
2021/01/01 09:14:13;;;;;;;7.43;4.70;;;;;;;;;;5065541;28;20459;-77
2021/01/01 09:17:06;;;;;;;7.18;4.30;;;;;;;;;;5077399;28;20032;-77
2021/01/01 09:20:08;;;;;;;6.40;3.33;;;;;;;;;;5066905;28;20093;-77
2021/01/01 09:22:58;;;;;;;6.35;3.75;;;;;;;;;;5064717;28;20028;-77
2021/01/01 09:25:43;;;;;;;7.30;4.35;;;;;;;;;;5067894;28;20012;-77
2021/01/01 09:28:28;;;;;;;5.72;3.67;;;;;;;;;;5065533;28;20033;-77
2021/01/01 09:31:15;;;;;;;5.97;3.67;;;;;;;;;;5067899;28;20449;-76
2021/01/01 09:34:02;;;;;;;7.28;4.05;;;;;;;;;;5065699;28;20036;-76
2021/01/01 09:36:47;;;;;;;7.32;3.85;;;;;;;;;;5067983;28;20032;-77
2021/01/01 09:39:33;;;;;;;6.22;4.03;;;;;;;;;;5065286;28;20086;-77
2021/01/01 09:42:23;;;;;;;6.15;3.55;;;;;;;;;;5067744;28;20132;-77
2021/01/01 09:45:08;;;;;;;6.40;3.53;;;;;;;;;;5065051;28;20036;-76
2021/01/01 09:47:53;;;;;;;5.45;3.65;;;;;;;;;;5067059;28;20032;-77
2021/01/01 09:50:38;;;;;;;6.13;3.85;;;;;;;;;;5065171;28;20356;-77
2021/01/01 09:53:24;;;;;;;5.85;3.67;;;;;;;;;;5067341;28;20557;-76
2021/01/01 09:56:09;;;;;;;6.80;4.10;;;;;;;;;;5064427;28;20478;-77
2021/01/01 09:58:54;;;;;;;6.28;3.85;;;;;;;;;;5067916;28;20071;-77
2021/01/01 10:01:39;;;;;;;6.55;4.07;;;;;;;;;;5065505;28;20033;-77
2021/01/01 10:04:24;;;;;;;5.25;3.50;;;;;;;;;;5067366;28;20074;-78
2021/01/01 10:07:09;;;;;;;6.22;3.42;;;;;;;;;;5047365;28;20036;-77
2021/01/01 10:09:55;;;;;;;6.32;3.88;;;;;;;;;;5047567;28;20025;-77
2021/01/01 10:12:40;;;;;;;5.93;3.30;;;;;;;;;;5066504;28;20497;-77
2021/01/01 10:15:26;;;;;;;5.22;3.30;;;;;;;;;;5064755;28;20039;-77
2021/01/01 10:18:11;;;;;;;5.55;3.55;;;;;;;;;;5086530;28;20031;-77
2021/01/01 10:20:57;;;;;;;6.22;3.67;;;;;;;;;;5077080;28;20021;-77
2021/01/01 10:23:43;;;;;;;5.30;3.10;;;;;;;;;;5066956;28;20024;-77
2021/01/01 10:26:28;;;;;;;5.80;2.95;;;;;;;;;;5064485;28;20120;-77
2021/01/01 10:29:13;;;;;;;5.00;2.78;;;;;;;;;;5066941;28;20032;-77
2021/01/01 10:32:02;;;;;;;4.10;2.90;;;;;;;;;;5064680;28;20074;-77
2021/01/01 10:34:47;;;;;;;3.95;2.50;;;;;;;;;;5066710;28;20540;-77
2021/01/01 10:37:33;;;;;;;6.45;3.10;;;;;;;;;;5064218;28;20424;-77
2021/01/01 10:40:18;;;;;;;5.90;3.88;;;;;;;;;;5066757;28;20028;-77
2021/01/01 10:43:03;;;;;;;5.55;3.08;;;;;;;;;;5063189;28;20020;-77
2021/01/01 10:45:48;;;;;;;4.25;2.70;;;;;;;;;;5067150;28;20433;-77
2021/01/01 10:48:33;;;;;;;4.20;2.67;;;;;;;;;;5085133;28;20470;-77
2021/01/01 10:51:19;;;;;;;6.45;3.22;;;;;;;;;;5084789;28;20034;-76
2021/01/01 10:54:05;;;;;;;3.70;2.60;;;;;;;;;;5047010;28;20029;-77
2021/01/01 10:56:50;;;;;;;5.10;2.67;;;;;;;;;;5061429;28;20102;-76
2021/01/01 10:59:35;;;;;;;5.28;3.10;;;;;;;;;;5066523;28;20035;-77
2021/01/01 11:02:20;;;;;;;5.32;3.50;;;;;;;;;;5064282;28;20017;-77
2021/01/01 11:05:06;;;;;;;6.43;4.03;;;;;;;;;;5067030;28;20036;-77
2021/01/01 11:07:51;;;;;;;5.72;3.72;;;;;;;;;;5064626;28;20394;-76
2021/01/01 11:10:36;;;;;;;4.88;2.83;;;;;;;;;;5066965;28;20429;-77
2021/01/01 11:13:21;;;;;;;4.38;3.00;;;;;;;;;;5062486;28;20135;-77
2021/01/01 12:26:53;;;;;;;8.35;4.78;;;;;;;;;;5066902;28;20036;-78
2021/01/01 12:29:38;;;;;;;5.97;3.65;;;;;;;;;;5069110;28;20060;-77
2021/01/01 12:32:23;;;;;;;6.18;3.53;;;;;;;;;;5066488;28;20383;-77
2021/01/01 12:35:10;;;;;;;6.13;3.70;;;;;;;;;;5068735;28;20025;-77
2021/01/01 12:37:59;;;;;;;7.93;3.72;;;;;;;;;;5063056;28;20120;-77
2021/01/01 12:40:45;;;;;;;6.63;3.88;;;;;;;;;;5048903;28;20036;-77
2021/01/01 12:43:30;;;;;;;5.32;3.17;;;;;;;;;;5068763;28;20394;-77
2021/01/01 12:46:15;;;;;;;5.95;3.70;;;;;;;;;;5063685;28;20107;-76
2021/01/01 12:49:00;;;;;;;6.28;3.75;;;;;;;;;;5068835;28;20048;-77
2021/01/01 12:51:45;;;;;;;5.90;3.50;;;;;;;;;;5066373;28;20055;-77
2021/01/01 12:54:30;;;;;;;6.38;3.45;;;;;;;;;;5068494;28;20078;-77
2021/01/01 12:57:16;;;;;;;5.85;3.58;;;;;;;;;;5064625;28;20101;-77
2021/01/01 13:00:01;;;;;;;6.22;3.83;;;;;;;;;;5068384;28;20024;-77
2021/01/01 13:02:46;;;;;;;7.03;4.32;;;;;;;;;;5065606;28;20028;-78
2021/01/01 13:05:31;;;;;;;6.82;4.07;;;;;;;;;;5068454;28;20032;-77
2021/01/01 13:08:16;;;;;;;6.15;3.85;;;;;;;;;;5065715;28;20042;-77
2021/01/01 13:11:02;;;;;;;5.95;3.78;;;;;;;;;;5068512;28;20028;-77
2021/01/01 13:13:47;;;;;;;6.80;4.50;;;;;;;;;;5065884;28;20034;-77
2021/01/01 13:16:32;;;;;;;5.90;4.05;;;;;;;;;;5073328;28;20016;-77
2021/01/01 13:19:17;;;;;;;6.82;3.90;;;;;;;;;;5065860;28;20394;-77
2021/01/01 13:22:03;;;;;;;5.55;3.47;;;;;;;;;;5067983;28;20033;-76
2021/01/01 13:24:49;;;;;;;6.07;3.63;;;;;;;;;;5067812;28;20402;-77
2021/01/01 13:27:34;;;;;;;7.15;4.00;;;;;;;;;;5065420;28;20382;-77
2021/01/01 13:30:19;;;;;;;6.53;3.90;;;;;;;;;;5065919;28;20032;-76
2021/01/01 13:33:05;;;;;;;6.15;3.88;;;;;;;;;;5065347;28;20109;-77
2021/01/01 13:35:51;;;;;;;7.10;4.22;;;;;;;;;;5067483;28;20431;-77
2021/01/01 13:38:37;;;;;;;42.45;9.52;;;;;;;;;;5064977;28;20036;-77
2021/01/01 13:41:22;;;;;;;12.73;4.97;;;;;;;;;;5067276;28;20031;-77
2021/01/01 13:44:08;;;;;;;7.68;4.85;;;;;;;;;;5065078;28;20115;-76
2021/01/01 13:46:53;;;;;;;7.03;4.30;;;;;;;;;;5065087;28;20418;-76
2021/01/01 13:49:38;;;;;;;7.07;4.05;;;;;;;;;;5064861;28;20032;-78
2021/01/01 13:52:24;;;;;;;8.15;4.50;;;;;;;;;;5067814;28;20025;-77
2021/01/01 13:55:09;;;;;;;7.20;4.78;;;;;;;;;;5063304;28;20127;-76
2021/01/01 13:57:58;;;;;;;7.10;4.57;;;;;;;;;;5067637;28;20039;-77
2021/01/01 14:00:44;;;;;;;7.13;4.18;;;;;;;;;;5065253;28;20040;-77
2021/01/01 14:03:29;;;;;;;9.88;5.28;;;;;;;;;;5067186;28;20025;-77
2021/01/01 14:06:14;;;;;;;7.80;4.82;;;;;;;;;;5067469;28;20123;-77
2021/01/01 14:09:00;;;;;;;5.93;3.60;;;;;;;;;;5065181;28;20673;-77
2021/01/01 14:11:47;;;;;;;7.80;4.00;;;;;;;;;;5065465;28;20523;-77
2021/01/01 14:14:33;;;;;;;6.45;3.90;;;;;;;;;;5064652;28;20040;-77
2021/01/01 14:17:18;;;;;;;6.15;3.63;;;;;;;;;;5079169;28;20077;-76
2021/01/01 14:20:04;;;;;;;7.32;3.15;;;;;;;;;;5078371;28;20037;-77
2021/01/01 14:22:49;;;;;;;4.85;3.38;;;;;;;;;;5065675;28;20576;-77
2021/01/01 14:25:41;;;;;;;5.63;3.78;;;;;;;;;;5064567;28;20680;-76
2021/01/01 14:28:26;;;;;;;4.45;2.95;;;;;;;;;;5066711;28;20115;-77
2021/01/01 14:31:12;;;;;;;4.47;2.80;;;;;;;;;;5064122;28;20025;-76
2021/01/01 14:33:57;;;;;;;5.18;3.00;;;;;;;;;;5066778;28;20091;-77
2021/01/01 14:36:42;;;;;;;4.72;2.38;;;;;;;;;;5064495;28;20155;-76
2021/01/01 14:39:27;;;;;;;3.95;2.55;;;;;;;;;;5064841;28;20020;-77
2021/01/01 14:42:12;;;;;;;6.80;3.85;;;;;;;;;;5064668;28;20025;-76
2021/01/01 14:44:58;;;;;;;5.53;3.33;;;;;;;;;;5067173;28;20081;-76
2021/01/01 14:47:44;;;;;;;6.28;3.00;;;;;;;;;;5064601;28;20371;-77
2021/01/01 14:50:29;;;;;;;6.25;3.45;;;;;;;;;;5065044;28;20106;-77
2021/01/01 14:53:14;;;;;;;5.55;3.20;;;;;;;;;;5061002;28;20139;-77
2021/01/01 14:56:00;;;;;;;8.25;3.10;;;;;;;;;;5047255;28;20033;-77
2021/01/01 14:58:46;;;;;;;5.82;3.30;;;;;;;;;;5069519;28;20036;-76
2021/01/01 15:01:35;;;;;;;5.18;3.35;;;;;;;;;;5070575;28;20511;-77
2021/01/01 15:04:20;;;;;;;6.95;3.58;;;;;;;;;;5071208;28;20197;-77
2021/01/01 15:07:05;;;;;;;6.28;3.80;;;;;;;;;;5068264;28;20573;-76
2021/01/01 15:09:50;;;;;;;7.57;3.78;;;;;;;;;;5071170;28;20079;-76
2021/01/01 15:12:36;;;;;;;6.55;3.35;;;;;;;;;;5068388;28;20024;-76
2021/01/01 15:15:21;;;;;;;5.88;3.38;;;;;;;;;;5070485;28;20024;-76
2021/01/01 15:18:06;;;;;;;7.07;3.92;;;;;;;;;;5068119;28;20035;-77
2021/01/01 15:20:51;;;;;;;6.20;3.70;;;;;;;;;;5070554;28;20021;-76
2021/01/01 15:23:41;;;;;;;7.25;3.95;;;;;;;;;;5068088;28;20027;-78
2021/01/01 15:26:27;;;;;;;;;;;;;;;;;;5050786;28;20115;-76
2021/01/01 15:29:12;;;;;;;6.28;4.10;;;;;;;;;;5067012;28;19905;-77
2021/01/01 15:31:57;;;;;;;8.40;5.20;;;;;;;;;;5070286;28;20551;-78
2021/01/01 15:34:43;;;;;;;8.38;5.07;;;;;;;;;;5070171;28;20726;-78
2021/01/01 15:37:28;;;;;;;9.10;5.22;;;;;;;;;;5067609;28;20086;-78
2021/01/01 15:40:13;;;;;;;7.82;4.22;;;;;;;;;;5069721;28;20024;-78
2021/01/01 15:42:58;;;;;;;8.07;4.30;;;;;;;;;;5066062;28;20021;-78
2021/01/01 15:45:43;;;;;;;8.02;4.20;;;;;;;;;;5069978;28;20024;-77
2021/01/01 15:48:28;;;;;;;8.30;4.50;;;;;;;;;;5066848;28;20162;-77
2021/01/01 15:51:14;;;;;;;8.10;4.22;;;;;;;;;;5069882;28;20055;-77
2021/01/01 15:54:00;;;;;;;7.05;4.35;;;;;;;;;;5067171;28;20032;-77
2021/01/01 15:56:49;;;;;;;7.53;4.30;;;;;;;;;;5069396;28;20666;-77
2021/01/01 15:59:34;;;;;;;10.95;4.50;;;;;;;;;;5066715;28;20508;-77
2021/01/01 16:02:20;;;;;;;7.40;4.35;;;;;;;;;;5069379;28;20028;-77
2021/01/01 16:05:05;;;;;;;10.00;4.53;;;;;;;;;;5067073;28;20446;-78
2021/01/01 16:07:51;;;;;;;10.15;4.65;;;;;;;;;;5069792;28;20020;-78
2021/01/01 16:10:36;;;;;;;10.10;5.57;;;;;;;;;;5064062;28;20119;-78
2021/01/01 16:13:21;;;;;;;10.82;5.47;;;;;;;;;;5069409;28;20028;-77
2021/01/01 16:16:06;;;;;;;9.18;4.63;;;;;;;;;;5068872;28;20073;-78
2021/01/01 16:18:51;;;;;;;9.65;4.65;;;;;;;;;;5089620;28;20111;-78
2021/01/01 16:21:38;;;;;;;7.38;4.75;;;;;;;;;;5049283;28;20032;-78
2021/01/01 16:24:23;;;;;;;10.40;5.47;;;;;;;;;;5050754;28;20024;-78
2021/01/01 16:27:08;;;;;;;9.43;5.57;;;;;;;;;;5069478;28;20027;-78
2021/01/01 16:29:54;;;;;;;9.20;5.00;;;;;;;;;;5066899;28;20039;-78
2021/01/01 16:32:40;;;;;;;8.65;5.00;;;;;;;;;;5067693;28;20029;-78
2021/01/01 16:35:25;;;;;;;22.38;14.05;;;;;;;;;;5066554;28;20497;-78
2021/01/01 16:38:15;;;;;;;14.25;7.60;;;;;;;;;;5067307;28;20376;-78
2021/01/01 16:41:00;;;;;;;;;;;;;;;;;;5066885;28;20036;-77
2021/01/01 16:43:45;;;;;;;9.18;5.13;;;;;;;;;;5069025;28;19904;-78
2021/01/01 16:46:30;;;;;;;9.95;5.45;;;;;;;;;;5064386;28;20067;-78
2021/01/01 16:49:17;;;;;;;9.05;4.80;;;;;;;;;;5069064;28;20119;-78
2021/01/01 16:52:04;;;;;;;10.07;5.45;;;;;;;;;;5066534;28;20040;-78
2021/01/01 16:54:49;;;;;;;9.32;6.05;;;;;;;;;;5068918;28;20025;-78
2021/01/01 16:57:34;;;;;;;10.48;5.55;;;;;;;;;;5066208;28;20119;-76
2021/01/01 17:00:20;;;;;;;10.85;6.38;;;;;;;;;;5066452;28;20028;-77
2021/01/01 17:03:05;;;;;;;11.90;6.55;;;;;;;;;;5048584;28;20028;-78
2021/01/01 17:05:50;;;;;;;11.57;6.72;;;;;;;;;;5047621;28;20605;-78
2021/01/01 17:08:35;;;;;;;11.48;6.88;;;;;;;;;;5066948;28;20070;-78
2021/01/01 17:11:20;;;;;;;13.60;6.05;;;;;;;;;;5065906;28;20036;-77
2021/01/01 17:14:05;;;;;;;10.40;6.15;;;;;;;;;;5068200;28;20523;-78
2021/01/01 17:16:54;;;;;;;12.10;6.25;;;;;;;;;;5067854;28;20486;-77
2021/01/01 17:19:39;;;;;;;10.63;6.10;;;;;;;;;;5067955;28;20047;-78
2021/01/01 17:22:24;;;;;;;10.98;6.47;;;;;;;;;;5065186;28;20539;-77
2021/01/01 17:25:10;;;;;;;12.75;6.72;;;;;;;;;;5068233;28;20037;-78
2021/01/01 17:27:55;;;;;;;12.68;6.47;;;;;;;;;;5065741;28;20024;-78
2021/01/01 17:30:41;;;;;;;10.90;6.55;;;;;;;;;;5067810;28;20048;-78
2021/01/01 17:33:26;;;;;;;11.38;6.53;;;;;;;;;;5065249;28;20024;-78
2021/01/01 17:36:12;;;;;;;14.82;7.85;;;;;;;;;;5067907;28;20047;-77